sensor_id;sensor_type;location;lat;lon;timestamp;P1;durP1;ratioP1;P2;durP2;ratioP2
23678;SDS011;12016;51.668;6.874;2023-03-04T00:04:42;10.88;;;3.83;;
23678;SDS011;12016;51.668;6.874;2023-03-04T00:10:45;8.55;;;3.58;;
23678;SDS011;12016;51.668;6.874;2023-03-04T00:16:47;9.88;;;3.72;;
23678;SDS011;12016;51.668;6.874;2023-03-04T00:22:49;9.90;;;3.53;;
23678;SDS011;12016;51.668;6.874;2023-03-04T00:28:51;11.05;;;3.75;;
23678;SDS011;12016;51.668;6.874;2023-03-04T00:34:54;11.32;;;3.72;;
23678;SDS011;12016;51.668;6.874;2023-03-04T00:40:56;10.77;;;3.58;;
23678;SDS011;12016;51.668;6.874;2023-03-04T00:46:58;10.40;;;3.60;;
23678;SDS011;12016;51.668;6.874;2023-03-04T00:52:59;11.63;;;3.78;;
23678;SDS011;12016;51.668;6.874;2023-03-04T00:59:02;14.73;;;4.00;;
23678;SDS011;12016;51.668;6.874;2023-03-04T01:05:06;11.35;;;3.40;;
23678;SDS011;12016;51.668;6.874;2023-03-04T01:11:08;10.82;;;3.13;;
23678;SDS011;12016;51.668;6.874;2023-03-04T01:17:11;9.23;;;3.30;;
23678;SDS011;12016;51.668;6.874;2023-03-04T01:23:13;13.20;;;3.70;;
23678;SDS011;12016;51.668;6.874;2023-03-04T01:29:15;11.27;;;3.30;;
23678;SDS011;12016;51.668;6.874;2023-03-04T01:35:17;13.65;;;3.22;;
23678;SDS011;12016;51.668;6.874;2023-03-04T01:41:21;11.73;;;4.13;;
23678;SDS011;12016;51.668;6.874;2023-03-04T01:47:27;11.70;;;3.83;;
23678;SDS011;12016;51.668;6.874;2023-03-04T01:53:31;9.82;;;3.38;;
23678;SDS011;12016;51.668;6.874;2023-03-04T01:59:33;11.95;;;3.65;;
23678;SDS011;12016;51.668;6.874;2023-03-04T02:05:36;12.00;;;3.78;;
23678;SDS011;12016;51.668;6.874;2023-03-04T02:11:40;10.85;;;3.50;;
23678;SDS011;12016;51.668;6.874;2023-03-04T02:17:43;10.45;;;3.63;;
23678;SDS011;12016;51.668;6.874;2023-03-04T02:29:51;13.20;;;3.65;;
23678;SDS011;12016;51.668;6.874;2023-03-04T02:35:53;11.88;;;3.28;;
23678;SDS011;12016;51.668;6.874;2023-03-04T02:41:56;11.77;;;3.47;;
23678;SDS011;12016;51.668;6.874;2023-03-04T02:47:59;10.02;;;3.45;;
23678;SDS011;12016;51.668;6.874;2023-03-04T02:54:01;9.27;;;3.30;;
23678;SDS011;12016;51.668;6.874;2023-03-04T03:00:03;9.65;;;3.00;;
23678;SDS011;12016;51.668;6.874;2023-03-04T03:06:05;9.82;;;3.22;;
23678;SDS011;12016;51.668;6.874;2023-03-04T03:12:08;6.95;;;3.10;;
23678;SDS011;12016;51.668;6.874;2023-03-04T03:18:11;10.70;;;2.92;;
23678;SDS011;12016;51.668;6.874;2023-03-04T03:24:15;9.60;;;2.90;;
23678;SDS011;12016;51.668;6.874;2023-03-04T03:30:18;8.20;;;2.92;;
23678;SDS011;12016;51.668;6.874;2023-03-04T03:36:19;9.38;;;3.58;;
23678;SDS011;12016;51.668;6.874;2023-03-04T03:42:21;8.50;;;3.10;;
23678;SDS011;12016;51.668;6.874;2023-03-04T03:48:23;8.00;;;3.10;;
23678;SDS011;12016;51.668;6.874;2023-03-04T03:54:25;8.57;;;3.63;;
23678;SDS011;12016;51.668;6.874;2023-03-04T04:00:26;8.75;;;2.95;;
23678;SDS011;12016;51.668;6.874;2023-03-04T04:06:28;8.02;;;2.95;;
23678;SDS011;12016;51.668;6.874;2023-03-04T04:12:30;8.63;;;2.97;;
23678;SDS011;12016;51.668;6.874;2023-03-04T04:18:34;8.90;;;2.78;;
23678;SDS011;12016;51.668;6.874;2023-03-04T04:24:36;7.05;;;2.60;;
23678;SDS011;12016;51.668;6.874;2023-03-04T04:30:37;13.25;;;3.53;;
23678;SDS011;12016;51.668;6.874;2023-03-04T04:36:39;8.23;;;2.85;;
23678;SDS011;12016;51.668;6.874;2023-03-04T04:42:41;7.45;;;2.80;;
23678;SDS011;12016;51.668;6.874;2023-03-04T04:48:43;7.78;;;2.55;;
23678;SDS011;12016;51.668;6.874;2023-03-04T04:54:45;5.90;;;2.47;;
23678;SDS011;12016;51.668;6.874;2023-03-04T05:00:47;6.43;;;2.60;;
23678;SDS011;12016;51.668;6.874;2023-03-04T05:06:49;6.68;;;2.63;;
23678;SDS011;12016;51.668;6.874;2023-03-04T05:12:51;9.13;;;2.88;;
23678;SDS011;12016;51.668;6.874;2023-03-04T05:18:53;10.75;;;2.83;;
23678;SDS011;12016;51.668;6.874;2023-03-04T05:24:55;9.40;;;2.70;;
23678;SDS011;12016;51.668;6.874;2023-03-04T05:30:57;8.43;;;3.00;;
23678;SDS011;12016;51.668;6.874;2023-03-04T05:36:59;11.65;;;2.90;;
23678;SDS011;12016;51.668;6.874;2023-03-04T05:43:01;10.02;;;2.75;;
23678;SDS011;12016;51.668;6.874;2023-03-04T05:49:04;7.18;;;2.40;;
23678;SDS011;12016;51.668;6.874;2023-03-04T05:55:05;9.40;;;2.90;;
23678;SDS011;12016;51.668;6.874;2023-03-04T06:01:08;7.68;;;2.53;;
23678;SDS011;12016;51.668;6.874;2023-03-04T06:07:09;6.72;;;2.55;;
23678;SDS011;12016;51.668;6.874;2023-03-04T06:13:11;7.82;;;2.90;;
23678;SDS011;12016;51.668;6.874;2023-03-04T06:19:14;8.63;;;3.17;;
23678;SDS011;12016;51.668;6.874;2023-03-04T06:25:15;12.40;;;4.70;;
23678;SDS011;12016;51.668;6.874;2023-03-04T06:31:17;7.95;;;2.90;;
23678;SDS011;12016;51.668;6.874;2023-03-04T06:37:19;8.82;;;2.90;;
23678;SDS011;12016;51.668;6.874;2023-03-04T06:43:21;7.50;;;2.75;;
23678;SDS011;12016;51.668;6.874;2023-03-04T06:49:22;7.97;;;3.00;;
23678;SDS011;12016;51.668;6.874;2023-03-04T06:55:24;6.35;;;2.70;;
23678;SDS011;12016;51.668;6.874;2023-03-04T07:01:28;7.00;;;2.67;;
23678;SDS011;12016;51.668;6.874;2023-03-04T07:07:29;6.53;;;2.50;;
23678;SDS011;12016;51.668;6.874;2023-03-04T07:13:31;8.23;;;2.83;;
23678;SDS011;12016;51.668;6.874;2023-03-04T07:19:35;5.25;;;2.10;;
23678;SDS011;12016;51.668;6.874;2023-03-04T07:25:38;5.10;;;2.65;;
23678;SDS011;12016;51.668;6.874;2023-03-04T07:31:40;8.23;;;2.63;;
23678;SDS011;12016;51.668;6.874;2023-03-04T07:37:42;7.28;;;2.75;;
23678;SDS011;12016;51.668;6.874;2023-03-04T07:43:44;6.43;;;2.30;;
23678;SDS011;12016;51.668;6.874;2023-03-04T07:49:46;7.57;;;2.40;;
23678;SDS011;12016;51.668;6.874;2023-03-04T07:55:47;4.78;;;2.35;;
23678;SDS011;12016;51.668;6.874;2023-03-04T08:01:49;10.50;;;2.60;;
23678;SDS011;12016;51.668;6.874;2023-03-04T08:07:55;6.53;;;2.92;;
23678;SDS011;12016;51.668;6.874;2023-03-04T08:13:58;7.20;;;2.53;;
23678;SDS011;12016;51.668;6.874;2023-03-04T08:20:00;6.63;;;2.80;;
23678;SDS011;12016;51.668;6.874;2023-03-04T08:26:09;5.18;;;2.53;;
23678;SDS011;12016;51.668;6.874;2023-03-04T08:32:15;6.43;;;2.80;;
23678;SDS011;12016;51.668;6.874;2023-03-04T08:38:17;5.70;;;2.53;;
23678;SDS011;12016;51.668;6.874;2023-03-04T08:44:19;8.90;;;3.00;;
23678;SDS011;12016;51.668;6.874;2023-03-04T08:50:21;8.55;;;2.60;;
23678;SDS011;12016;51.668;6.874;2023-03-04T08:56:22;7.68;;;2.60;;
23678;SDS011;12016;51.668;6.874;2023-03-04T09:02:25;8.27;;;2.80;;
23678;SDS011;12016;51.668;6.874;2023-03-04T09:08:27;8.52;;;2.90;;
23678;SDS011;12016;51.668;6.874;2023-03-04T09:14:29;10.30;;;4.85;;
23678;SDS011;12016;51.668;6.874;2023-03-04T09:20:30;7.00;;;2.60;;
23678;SDS011;12016;51.668;6.874;2023-03-04T09:26:32;5.45;;;2.08;;
23678;SDS011;12016;51.668;6.874;2023-03-04T09:32:34;7.15;;;2.20;;
23678;SDS011;12016;51.668;6.874;2023-03-04T09:38:37;4.90;;;2.08;;
23678;SDS011;12016;51.668;6.874;2023-03-04T09:44:40;5.47;;;1.80;;
23678;SDS011;12016;51.668;6.874;2023-03-04T09:50:49;7.22;;;2.90;;
23678;SDS011;12016;51.668;6.874;2023-03-04T10:09:46;4.68;;;1.80;;
23678;SDS011;12016;51.668;6.874;2023-03-04T10:15:52;3.25;;;1.60;;
23678;SDS011;12016;51.668;6.874;2023-03-04T10:21:55;3.75;;;1.60;;
23678;SDS011;12016;51.668;6.874;2023-03-04T10:34:13;4.40;;;2.00;;
23678;SDS011;12016;51.668;6.874;2023-03-04T10:40:17;5.07;;;1.83;;
23678;SDS011;12016;51.668;6.874;2023-03-04T10:52:28;5.45;;;2.30;;
23678;SDS011;12016;51.668;6.874;2023-03-04T10:58:36;4.75;;;2.30;;
23678;SDS011;12016;51.668;6.874;2023-03-04T11:04:38;5.40;;;2.15;;
23678;SDS011;12016;51.668;6.874;2023-03-04T11:10:39;4.50;;;2.00;;
23678;SDS011;12016;51.668;6.874;2023-03-04T11:16:44;5.75;;;2.17;;
23678;SDS011;12016;51.668;6.874;2023-03-04T11:22:59;5.10;;;2.22;;
23678;SDS011;12016;51.668;6.874;2023-03-04T11:29:19;5.20;;;2.25;;
23678;SDS011;12016;51.668;6.874;2023-03-04T11:35:31;4.95;;;3.03;;
23678;SDS011;12016;51.668;6.874;2023-03-04T11:41:51;4.30;;;2.75;;
23678;SDS011;12016;51.668;6.874;2023-03-04T11:48:08;5.35;;;2.60;;
23678;SDS011;12016;51.668;6.874;2023-03-04T12:10:24;3.67;;;2.40;;
23678;SDS011;12016;51.668;6.874;2023-03-04T12:16:43;3.72;;;2.40;;
23678;SDS011;12016;51.668;6.874;2023-03-04T12:42:09;4.13;;;2.65;;
23678;SDS011;12016;51.668;6.874;2023-03-04T12:48:46;4.18;;;2.70;;
23678;SDS011;12016;51.668;6.874;2023-03-04T12:55:01;3.55;;;2.50;;
23678;SDS011;12016;51.668;6.874;2023-03-04T13:07:31;4.80;;;2.35;;
23678;SDS011;12016;51.668;6.874;2023-03-04T13:13:41;3.33;;;2.28;;
23678;SDS011;12016;51.668;6.874;2023-03-04T13:19:44;3.85;;;1.92;;
23678;SDS011;12016;51.668;6.874;2023-03-04T13:31:58;2.63;;;1.75;;
23678;SDS011;12016;51.668;6.874;2023-03-04T13:50:37;2.47;;;1.60;;
23678;SDS011;12016;51.668;6.874;2023-03-04T13:56:44;3.42;;;1.60;;
23678;SDS011;12016;51.668;6.874;2023-03-04T14:02:48;3.95;;;1.88;;
23678;SDS011;12016;51.668;6.874;2023-03-04T14:08:52;3.65;;;1.70;;
23678;SDS011;12016;51.668;6.874;2023-03-04T14:14:55;4.22;;;1.90;;
23678;SDS011;12016;51.668;6.874;2023-03-04T14:21:00;4.55;;;1.80;;
23678;SDS011;12016;51.668;6.874;2023-03-04T14:27:03;6.40;;;2.45;;
23678;SDS011;12016;51.668;6.874;2023-03-04T14:33:16;3.78;;;1.90;;
23678;SDS011;12016;51.668;6.874;2023-03-04T14:39:28;6.20;;;2.40;;
23678;SDS011;12016;51.668;6.874;2023-03-04T14:45:31;3.60;;;2.15;;
23678;SDS011;12016;51.668;6.874;2023-03-04T14:51:42;7.07;;;2.50;;
23678;SDS011;12016;51.668;6.874;2023-03-04T14:57:52;6.63;;;2.25;;
23678;SDS011;12016;51.668;6.874;2023-03-04T15:04:14;5.75;;;2.40;;
23678;SDS011;12016;51.668;6.874;2023-03-04T15:10:21;4.22;;;2.10;;
23678;SDS011;12016;51.668;6.874;2023-03-04T15:16:26;4.03;;;1.60;;
23678;SDS011;12016;51.668;6.874;2023-03-04T15:22:31;4.47;;;1.80;;
23678;SDS011;12016;51.668;6.874;2023-03-04T15:28:37;3.15;;;1.73;;
23678;SDS011;12016;51.668;6.874;2023-03-04T15:34:40;7.03;;;2.20;;
23678;SDS011;12016;51.668;6.874;2023-03-04T15:40:42;3.95;;;1.65;;
23678;SDS011;12016;51.668;6.874;2023-03-04T15:46:43;4.60;;;1.85;;
23678;SDS011;12016;51.668;6.874;2023-03-04T15:52:45;4.25;;;2.03;;
23678;SDS011;12016;51.668;6.874;2023-03-04T15:58:53;3.80;;;1.90;;
23678;SDS011;12016;51.668;6.874;2023-03-04T16:04:57;4.30;;;1.75;;
23678;SDS011;12016;51.668;6.874;2023-03-04T16:10:59;4.90;;;1.90;;
23678;SDS011;12016;51.668;6.874;2023-03-04T16:17:01;4.50;;;1.90;;
23678;SDS011;12016;51.668;6.874;2023-03-04T16:23:02;5.88;;;2.38;;
23678;SDS011;12016;51.668;6.874;2023-03-04T16:29:05;5.03;;;1.77;;
23678;SDS011;12016;51.668;6.874;2023-03-04T16:35:07;5.10;;;1.92;;
23678;SDS011;12016;51.668;6.874;2023-03-04T16:41:10;5.30;;;2.00;;
23678;SDS011;12016;51.668;6.874;2023-03-04T16:47:13;5.03;;;2.10;;
23678;SDS011;12016;51.668;6.874;2023-03-04T16:53:19;5.82;;;2.20;;
23678;SDS011;12016;51.668;6.874;2023-03-04T16:59:28;4.90;;;1.93;;
23678;SDS011;12016;51.668;6.874;2023-03-04T17:05:32;5.70;;;2.00;;
23678;SDS011;12016;51.668;6.874;2023-03-04T17:11:34;4.18;;;2.10;;
23678;SDS011;12016;51.668;6.874;2023-03-04T17:17:36;6.30;;;2.20;;
23678;SDS011;12016;51.668;6.874;2023-03-04T17:23:38;8.55;;;3.33;;
23678;SDS011;12016;51.668;6.874;2023-03-04T17:29:40;5.25;;;2.20;;
23678;SDS011;12016;51.668;6.874;2023-03-04T17:35:44;7.47;;;2.45;;
23678;SDS011;12016;51.668;6.874;2023-03-04T17:41:48;8.77;;;2.42;;
23678;SDS011;12016;51.668;6.874;2023-03-04T17:47:51;8.13;;;2.40;;
23678;SDS011;12016;51.668;6.874;2023-03-04T17:53:53;4.75;;;2.17;;
23678;SDS011;12016;51.668;6.874;2023-03-04T17:59:55;6.53;;;2.63;;
23678;SDS011;12016;51.668;6.874;2023-03-04T18:05:57;6.32;;;2.30;;
23678;SDS011;12016;51.668;6.874;2023-03-04T18:11:59;5.47;;;2.00;;
23678;SDS011;12016;51.668;6.874;2023-03-04T18:18:01;5.38;;;2.17;;
23678;SDS011;12016;51.668;6.874;2023-03-04T18:24:04;6.90;;;2.80;;
23678;SDS011;12016;51.668;6.874;2023-03-04T18:30:11;7.50;;;2.40;;
23678;SDS011;12016;51.668;6.874;2023-03-04T18:36:21;6.60;;;2.03;;
23678;SDS011;12016;51.668;6.874;2023-03-04T18:42:23;4.95;;;2.05;;
23678;SDS011;12016;51.668;6.874;2023-03-04T18:48:25;4.03;;;1.90;;
23678;SDS011;12016;51.668;6.874;2023-03-04T18:54:27;5.75;;;2.17;;
23678;SDS011;12016;51.668;6.874;2023-03-04T19:00:29;4.40;;;2.25;;
23678;SDS011;12016;51.668;6.874;2023-03-04T19:06:31;7.38;;;2.58;;
23678;SDS011;12016;51.668;6.874;2023-03-04T19:12:34;4.90;;;2.13;;
23678;SDS011;12016;51.668;6.874;2023-03-04T19:18:36;5.53;;;2.33;;
23678;SDS011;12016;51.668;6.874;2023-03-04T19:24:38;6.78;;;2.20;;
23678;SDS011;12016;51.668;6.874;2023-03-04T19:30:40;5.45;;;2.30;;
23678;SDS011;12016;51.668;6.874;2023-03-04T19:36:42;4.88;;;2.30;;
23678;SDS011;12016;51.668;6.874;2023-03-04T19:42:44;5.78;;;2.47;;
23678;SDS011;12016;51.668;6.874;2023-03-04T19:48:46;5.35;;;2.30;;
23678;SDS011;12016;51.668;6.874;2023-03-04T19:54:51;6.50;;;2.58;;
23678;SDS011;12016;51.668;6.874;2023-03-04T20:00:52;5.68;;;2.42;;
23678;SDS011;12016;51.668;6.874;2023-03-04T20:06:55;9.98;;;2.80;;
23678;SDS011;12016;51.668;6.874;2023-03-04T20:13:05;8.07;;;2.75;;
23678;SDS011;12016;51.668;6.874;2023-03-04T20:19:08;5.95;;;2.47;;
23678;SDS011;12016;51.668;6.874;2023-03-04T20:25:10;6.47;;;2.40;;
23678;SDS011;12016;51.668;6.874;2023-03-04T20:31:21;5.28;;;2.20;;
23678;SDS011;12016;51.668;6.874;2023-03-04T20:37:26;5.00;;;2.30;;
23678;SDS011;12016;51.668;6.874;2023-03-04T20:43:28;5.20;;;2.30;;
23678;SDS011;12016;51.668;6.874;2023-03-04T20:49:31;5.78;;;2.55;;
23678;SDS011;12016;51.668;6.874;2023-03-04T20:55:34;5.43;;;2.42;;
23678;SDS011;12016;51.668;6.874;2023-03-04T21:01:36;6.30;;;2.40;;
23678;SDS011;12016;51.668;6.874;2023-03-04T21:07:42;7.90;;;3.05;;
23678;SDS011;12016;51.668;6.874;2023-03-04T21:13:58;7.57;;;2.30;;
23678;SDS011;12016;51.668;6.874;2023-03-04T21:20:00;5.25;;;2.15;;
23678;SDS011;12016;51.668;6.874;2023-03-04T21:26:02;7.22;;;2.42;;
23678;SDS011;12016;51.668;6.874;2023-03-04T21:32:18;7.05;;;2.97;;
23678;SDS011;12016;51.668;6.874;2023-03-04T21:38:26;5.93;;;2.55;;
23678;SDS011;12016;51.668;6.874;2023-03-04T21:44:28;7.80;;;2.70;;
23678;SDS011;12016;51.668;6.874;2023-03-04T21:50:45;6.65;;;2.50;;
23678;SDS011;12016;51.668;6.874;2023-03-04T21:56:47;7.18;;;2.72;;
23678;SDS011;12016;51.668;6.874;2023-03-04T22:02:50;5.47;;;2.28;;
23678;SDS011;12016;51.668;6.874;2023-03-04T22:08:53;6.38;;;2.30;;
23678;SDS011;12016;51.668;6.874;2023-03-04T22:14:56;7.35;;;2.65;;
23678;SDS011;12016;51.668;6.874;2023-03-04T22:20:59;7.47;;;2.70;;
23678;SDS011;12016;51.668;6.874;2023-03-04T22:27:04;7.32;;;2.90;;
23678;SDS011;12016;51.668;6.874;2023-03-04T22:33:06;7.70;;;2.92;;
23678;SDS011;12016;51.668;6.874;2023-03-04T22:45:11;6.57;;;2.97;;
23678;SDS011;12016;51.668;6.874;2023-03-04T22:51:15;7.95;;;3.10;;
23678;SDS011;12016;51.668;6.874;2023-03-04T22:57:18;7.30;;;3.22;;
23678;SDS011;12016;51.668;6.874;2023-03-04T23:03:20;10.68;;;3.45;;
23678;SDS011;12016;51.668;6.874;2023-03-04T23:09:22;11.07;;;3.25;;
23678;SDS011;12016;51.668;6.874;2023-03-04T23:15:23;8.70;;;3.28;;
23678;SDS011;12016;51.668;6.874;2023-03-04T23:21:25;9.45;;;3.47;;
23678;SDS011;12016;51.668;6.874;2023-03-04T23:27:30;7.03;;;3.17;;
23678;SDS011;12016;51.668;6.874;2023-03-04T23:33:31;7.35;;;2.90;;
23678;SDS011;12016;51.668;6.874;2023-03-04T23:39:34;6.82;;;2.90;;
23678;SDS011;12016;51.668;6.874;2023-03-04T23:45:36;9.02;;;3.08;;
23678;SDS011;12016;51.668;6.874;2023-03-04T23:51:38;7.90;;;3.25;;
23678;SDS011;12016;51.668;6.874;2023-03-04T23:57:41;7.78;;;3.30;;
